Terminal Aerodrome Forecast
Issued by NWS

Home | Current Version | Previous Version | Text Only | Print | Product List | Glossary On
Versions: 1 2 3 4 5 6 7 8 9 10 11 12 13 14 15 16 17 18 19
000
FTUS43 KJKL 251000 AAA
TAFSME
TAF AMD
KSME 251023Z 2510/2606 VRB03KT 4SM BR FEW250
      TEMPO 2510/2513 P6SM NSW
     FM251300 23006KT P6SM SCT030 BKN050=

USA.gov is the U.S. government's official web portal to all federal, state and local government web resources and services.